Time;durP1;ratioP1;P1;durP2;ratioP2;P2;SDS_P1;SDS_P2;PMS_P1;PMS_P2;Temp;Humidity;BMP_temperature;BMP_pressure;BME280_temperature;BME280_humidity;BME280_pressure;Samples;Min_cycle;Max_cycle;Signal;HPM_P1;HPM_P2
2022/06/15 00:01:20;;;;;;;2.78;2.08;;;;;21.10;101856.00;;;;5050231;28;20196;-78
2022/06/15 00:03:48;;;;;;;5.10;2.10;;;;;21.00;101862.00;;;;5050661;28;20187;-78
2022/06/15 00:06:19;;;;;;;3.20;1.92;;;;;21.00;101869.00;;;;5051442;28;20207;-78
2022/06/15 00:08:51;;;;;;;2.33;1.85;;;;;20.90;101863.00;;;;5050688;28;20200;-77
2022/06/15 00:11:21;;;;;;;3.05;2.28;;;;;21.00;101861.00;;;;5050858;28;20282;-78
2022/06/15 00:13:49;;;;;;;3.70;2.03;;;;;20.90;101856.00;;;;5046571;28;20729;-76
2022/06/15 00:16:17;;;;;;;2.40;2.20;;;;;20.90;101854.00;;;;5048440;28;20199;-78
2022/06/15 00:18:48;;;;;;;2.70;1.90;;;;;20.90;101851.00;;;;5048081;28;20231;-78
2022/06/15 00:21:18;;;;;;;2.13;1.92;;;;;20.90;101847.00;;;;5048570;28;20204;-78
2022/06/15 00:23:46;;;;;;;2.88;2.13;;;;;20.80;101862.00;;;;5050474;28;20204;-78
2022/06/15 00:26:14;;;;;;;3.60;2.28;;;;;20.80;101860.00;;;;5049612;28;20230;-78
2022/06/15 00:28:41;;;;;;;3.70;2.15;;;;;20.80;101861.00;;;;5048517;28;20203;-78
2022/06/15 00:31:09;;;;;;;2.45;2.03;;;;;20.80;101855.00;;;;5046699;28;20188;-76
2022/06/15 00:33:37;;;;;;;3.38;2.08;;;;;20.70;101859.00;;;;5046816;28;20204;-78
2022/06/15 00:36:08;;;;;;;1.85;1.45;;;;;20.70;101855.00;;;;5049365;28;20195;-78
2022/06/15 00:38:39;;;;;;;3.97;2.10;;;;;20.60;101854.00;;;;5049239;28;20226;-78
2022/06/15 00:41:08;;;;;;;3.70;1.90;;;;;20.60;101857.00;;;;5048327;28;20199;-78
2022/06/15 00:43:38;;;;;;;2.78;2.10;;;;;20.60;101854.00;;;;5049246;28;20234;-76
2022/06/15 00:46:15;;;;;;;3.65;2.10;;;;;20.50;101853.00;;;;5049107;28;20219;-76
2022/06/15 00:48:45;;;;;;;2.13;1.88;;;;;20.60;101850.00;;;;5044325;28;20203;-78
2022/06/15 00:51:14;;;;;;;2.58;1.90;;;;;20.60;101850.00;;;;5047021;28;20588;-78
2022/06/15 00:53:43;;;;;;;4.88;2.20;;;;;20.50;101842.00;;;;5047407;28;20203;-78
2022/06/15 00:56:11;;;;;;;1.73;1.52;;;;;20.50;101846.00;;;;5048648;28;20204;-78
2022/06/15 00:58:40;;;;;;;2.10;1.90;;;;;20.50;101842.00;;;;5049676;28;20196;-78
2022/06/15 01:01:08;;;;;;;4.95;2.45;;;;;20.50;101844.00;;;;5049163;28;20199;-78
2022/06/15 01:03:37;;;;;;;4.30;2.25;;;;;20.40;101841.00;;;;5050259;28;20200;-78
2022/06/15 01:06:11;;;;;;;3.22;1.67;;;;;20.40;101840.00;;;;5042554;28;20223;-78
2022/06/15 01:08:47;;;;;;;2.28;2.08;;;;;20.30;101839.00;;;;5048582;28;20198;-78
2022/06/15 01:11:23;;;;;;;3.22;2.28;;;;;20.30;101834.00;;;;5049890;28;20200;-78
2022/06/15 01:14:28;;;;;;;2.83;1.83;;;;;20.20;101834.00;;;;5049394;28;20574;-78
2022/06/15 01:17:04;;;;;;;3.15;2.13;;;;;20.20;101832.00;;;;5049189;28;20200;-78
2022/06/15 01:20:01;;;;;;;2.78;1.95;;;;;20.10;101835.00;;;;5050302;28;20195;-78
2022/06/15 01:22:48;;;;;;;6.97;2.00;;;;;20.10;101833.00;;;;5019418;28;20215;-78
2022/06/15 01:25:36;;;;;;;2.83;2.00;;;;;20.10;101832.00;;;;5049176;28;20227;-78
2022/06/15 01:28:27;;;;;;;3.08;2.28;;;;;20.00;101825.00;;;;5047531;28;20228;-78
2022/06/15 01:31:01;;;;;;;4.47;1.98;;;;;20.10;101831.00;;;;5049060;28;20187;-78
2022/06/15 01:33:34;;;;;;;2.10;1.80;;;;;20.10;101834.00;;;;5048861;28;20203;-78
2022/06/15 01:36:10;;;;;;;6.97;2.08;;;;;20.10;101832.00;;;;5049769;28;20196;-78
2022/06/15 01:38:48;;;;;;;2.72;2.17;;;;;20.10;101829.00;;;;5048140;28;20196;-78
2022/06/15 01:41:20;;;;;;;3.60;1.77;;;;;20.10;101834.00;;;;5049593;28;20328;-78
2022/06/15 01:43:53;;;;;;;4.47;2.63;;;;;20.10;101829.00;;;;5049284;28;20223;-78
2022/06/15 01:46:22;;;;;;;3.15;2.60;;;;;20.10;101822.00;;;;5049334;28;20223;-78
2022/06/15 01:48:54;;;;;;;3.15;2.70;;;;;20.00;101824.00;;;;5045848;28;20204;-78
2022/06/15 01:51:27;;;;;;;3.60;2.28;;;;;20.00;101816.00;;;;5046676;28;20202;-78
2022/06/15 01:53:58;;;;;;;4.60;2.08;;;;;20.00;101817.00;;;;5046660;28;20654;-78
2022/06/15 01:56:31;;;;;;;2.50;1.90;;;;;20.00;101816.00;;;;5043929;28;20207;-78
2022/06/15 01:59:03;;;;;;;2.00;1.60;;;;;20.00;101818.00;;;;5047370;28;20697;-78
2022/06/15 02:01:41;;;;;;;3.90;2.00;;;;;19.90;101812.00;;;;5048569;28;20200;-76
2022/06/15 02:04:16;;;;;;;4.05;1.85;;;;;20.00;101817.00;;;;5048155;28;20740;-77
2022/06/15 02:06:51;;;;;;;2.92;2.00;;;;;19.90;101816.00;;;;5048632;28;20226;-77
2022/06/15 02:09:25;;;;;;;2.60;1.95;;;;;19.90;101811.00;;;;5040975;28;20196;-77
2022/06/15 02:11:55;;;;;;;3.55;2.28;;;;;20.00;101811.00;;;;5046924;28;20195;-77
2022/06/15 02:14:27;;;;;;;3.20;2.47;;;;;19.90;101803.00;;;;5047891;28;20203;-77
2022/06/15 02:17:00;;;;;;;3.03;2.10;;;;;19.90;101799.00;;;;5047902;28;20680;-77
2022/06/15 02:19:32;;;;;;;1.92;1.70;;;;;19.90;101798.00;;;;5046114;28;20203;-77
2022/06/15 02:22:04;;;;;;;3.95;2.30;;;;;19.90;101801.00;;;;5045323;28;20314;-77
2022/06/15 02:24:33;;;;;;;4.03;2.10;;;;;19.90;101790.00;;;;5047518;28;20204;-76
2022/06/15 02:27:01;;;;;;;2.92;1.88;;;;;19.80;101788.00;;;;5046520;28;20211;-77
2022/06/15 02:29:34;;;;;;;3.08;2.17;;;;;19.80;101794.00;;;;5043287;28;20199;-77
2022/06/15 02:32:07;;;;;;;2.58;2.20;;;;;19.80;101792.00;;;;5028145;28;20208;-77
2022/06/15 02:34:34;;;;;;;6.13;2.72;;;;;19.80;101795.00;;;;5045395;28;20206;-77
2022/06/15 02:37:01;;;;;;;4.38;2.13;;;;;19.80;101791.00;;;;5047647;28;20192;-76
2022/06/15 02:39:29;;;;;;;6.00;2.30;;;;;19.80;101782.00;;;;5047314;28;20210;-77
2022/06/15 02:42:20;;;;;;;4.05;2.22;;;;;19.70;101783.00;;;;5047404;28;20693;-77
2022/06/15 02:44:49;;;;;;;3.20;1.73;;;;;19.70;101783.00;;;;5048223;28;20203;-77
2022/06/15 02:47:19;;;;;;;2.53;1.92;;;;;19.70;101785.00;;;;5046812;28;20211;-77
2022/06/15 02:49:51;;;;;;;4.03;2.08;;;;;19.70;101786.00;;;;5047905;28;20187;-77
2022/06/15 02:52:21;;;;;;;2.55;1.80;;;;;19.70;101782.00;;;;5047827;28;20573;-77
2022/06/15 02:54:51;;;;;;;3.35;2.70;;;;;19.60;101782.00;;;;5047156;28;20195;-77
2022/06/15 02:57:20;;;;;;;3.38;1.98;;;;;19.60;101781.00;;;;5047717;28;20196;-77
2022/06/15 02:59:48;;;;;;;6.90;2.28;;;;;19.60;101775.00;;;;5047255;28;20199;-77
2022/06/15 03:02:19;;;;;;;3.10;2.10;;;;;19.60;101777.00;;;;5045959;28;20206;-77
2022/06/15 03:04:48;;;;;;;4.05;2.00;;;;;19.60;101781.00;;;;5045928;28;20951;-77
2022/06/15 03:07:16;;;;;;;3.15;2.10;;;;;19.60;101769.00;;;;5047026;28;20198;-77
2022/06/15 03:09:43;;;;;;;3.20;2.08;;;;;19.60;101770.00;;;;5046505;28;20203;-78
2022/06/15 03:12:11;;;;;;;2.20;2.03;;;;;19.60;101783.00;;;;5048057;28;20191;-78
2022/06/15 03:14:39;;;;;;;4.43;2.50;;;;;19.60;101784.00;;;;5048745;28;20208;-78
2022/06/15 03:17:06;;;;;;;3.10;2.35;;;;;19.50;101781.00;;;;5046782;28;20202;-77
2022/06/15 03:19:35;;;;;;;3.17;2.25;;;;;19.50;101784.00;;;;5047289;28;20249;-77
2022/06/15 03:22:02;;;;;;;2.03;1.83;;;;;19.50;101781.00;;;;5041074;28;20214;-77
2022/06/15 03:24:29;;;;;;;4.35;1.75;;;;;19.50;101781.00;;;;5049575;28;20211;-77
2022/06/15 03:26:57;;;;;;;4.68;2.35;;;;;19.50;101778.00;;;;5050301;28;20223;-78
2022/06/15 03:29:25;;;;;;;3.70;2.05;;;;;19.50;101781.00;;;;5047585;28;20200;-77
2022/06/15 03:31:52;;;;;;;4.32;2.00;;;;;19.50;101784.00;;;;5047720;28;20191;-77
2022/06/15 03:34:19;;;;;;;3.55;2.60;;;;;19.50;101777.00;;;;5047865;28;20512;-77
2022/06/15 03:36:48;;;;;;;5.68;2.10;;;;;19.40;101779.00;;;;5046441;28;20204;-77
2022/06/15 03:39:16;;;;;;;5.03;2.22;;;;;19.50;101778.00;;;;5046059;28;20211;-77
2022/06/15 03:41:43;;;;;;;3.88;2.55;;;;;19.50;101785.00;;;;5046808;28;20207;-77
2022/06/15 03:44:11;;;;;;;3.38;2.13;;;;;19.50;101787.00;;;;5047260;28;20215;-78
2022/06/15 03:46:38;;;;;;;2.67;2.13;;;;;19.50;101779.00;;;;5047213;28;20310;-78
2022/06/15 03:49:06;;;;;;;2.95;2.22;;;;;19.50;101780.00;;;;5046174;28;20282;-78
2022/06/15 03:51:33;;;;;;;3.17;2.33;;;;;19.50;101776.00;;;;5046542;28;20208;-78
2022/06/15 03:54:02;;;;;;;3.38;2.17;;;;;19.50;101784.00;;;;5043595;28;20211;-78
2022/06/15 03:56:48;;;;;;;3.95;1.75;;;;;19.40;101786.00;;;;5035166;28;20239;-78
2022/06/15 03:59:16;;;;;;;2.92;2.13;;;;;19.50;101780.00;;;;5042258;28;20203;-77
2022/06/15 04:01:43;;;;;;;5.88;1.80;;;;;19.50;101783.00;;;;5047194;28;20199;-77
2022/06/15 04:04:10;;;;;;;6.72;2.60;;;;;19.50;101782.00;;;;5046854;28;20210;-78
2022/06/15 04:06:38;;;;;;;3.17;2.15;;;;;19.60;101783.00;;;;5049823;28;20219;-77
2022/06/15 04:09:05;;;;;;;3.50;2.13;;;;;19.60;101780.00;;;;5050131;28;20196;-78
2022/06/15 04:14:18;;;;;;;6.03;1.95;;;;;19.60;101773.00;;;;5043152;28;20213;-77
2022/06/15 04:16:53;;;;;;;2.08;1.88;;;;;19.60;101773.00;;;;5050074;28;20192;-77
2022/06/15 04:19:23;;;;;;;3.42;1.80;;;;;19.60;101765.00;;;;5050854;28;20290;-78
2022/06/15 04:21:50;;;;;;;5.45;2.35;;;;;19.70;101770.00;;;;5050326;28;20749;-77
2022/06/15 04:24:20;;;;;;;3.63;2.08;;;;;19.70;101773.00;;;;5050700;28;20558;-78
2022/06/15 04:26:49;;;;;;;4.18;1.77;;;;;19.70;101763.00;;;;5050150;28;20239;-78
2022/06/15 04:29:17;;;;;;;3.75;1.70;;;;;19.70;101776.00;;;;5046724;28;20204;-77
2022/06/15 04:31:45;;;;;;;2.22;1.70;;;;;19.80;101774.00;;;;5050254;28;20520;-78
2022/06/15 04:34:13;;;;;;;3.28;1.63;;;;;19.80;101776.00;;;;5049787;28;20585;-78
2022/06/15 04:36:42;;;;;;;1.95;1.83;;;;;19.90;101784.00;;;;5050758;28;20208;-78
2022/06/15 04:39:11;;;;;;;4.75;1.95;;;;;19.90;101790.00;;;;5049834;28;20199;-77
2022/06/15 04:41:43;;;;;;;2.05;1.83;;;;;19.90;101790.00;;;;5050745;28;20203;-78
2022/06/15 04:44:12;;;;;;;2.22;1.27;;;;;20.00;101793.00;;;;5048056;28;20207;-78
2022/06/15 04:46:40;;;;;;;3.22;1.75;;;;;20.10;101784.00;;;;5045056;28;20231;-78
2022/06/15 04:49:08;;;;;;;5.40;2.08;;;;;20.10;101795.00;;;;5049314;28;20199;-77
2022/06/15 04:51:42;;;;;;;4.72;1.92;;;;;20.10;101791.00;;;;5050525;28;20291;-78
2022/06/15 04:54:10;;;;;;;3.60;2.13;;;;;20.20;101790.00;;;;5042714;28;20202;-78
2022/06/15 04:56:38;;;;;;;2.83;2.10;;;;;20.30;101795.00;;;;5051407;28;20286;-78
2022/06/15 04:59:07;;;;;;;4.72;2.30;;;;;20.30;101785.00;;;;5047418;28;20199;-78
2022/06/15 05:01:34;;;;;;;2.17;1.98;;;;;20.40;101787.00;;;;5050451;28;20192;-77
2022/06/15 05:04:02;;;;;;;7.25;2.17;;;;;20.40;101793.00;;;;5049518;28;20196;-77
2022/06/15 05:06:34;;;;;;;4.20;1.90;;;;;20.50;101793.00;;;;5048768;28;20223;-77
2022/06/15 05:09:02;;;;;;;2.95;1.70;;;;;20.60;101792.00;;;;5046809;28;20195;-77
2022/06/15 05:11:29;;;;;;;3.50;1.98;;;;;20.60;101794.00;;;;5050966;28;20206;-77
2022/06/15 05:13:57;;;;;;;2.47;1.73;;;;;20.70;101793.00;;;;5042940;28;20205;-77
2022/06/15 05:16:27;;;;;;;1.70;1.60;;;;;20.70;101794.00;;;;5049741;28;20199;-77
2022/06/15 05:18:54;;;;;;;3.08;1.83;;;;;20.80;101798.00;;;;5049001;28;20211;-77
2022/06/15 05:21:21;;;;;;;2.08;1.70;;;;;20.90;101800.00;;;;5050110;28;20203;-77
2022/06/15 05:23:49;;;;;;;2.97;1.90;;;;;20.90;101790.00;;;;5050234;28;20196;-77
2022/06/15 05:26:16;;;;;;;5.55;1.80;;;;;21.00;101794.00;;;;5045790;28;20234;-77
2022/06/15 05:28:45;;;;;;;6.07;2.67;;;;;21.00;101788.00;;;;5048983;28;20954;-77
2022/06/15 05:31:16;;;;;;;3.45;1.90;;;;;21.10;101782.00;;;;5048091;28;20203;-77
2022/06/15 05:33:53;;;;;;;4.00;1.98;;;;;21.10;101787.00;;;;5050939;28;20281;-78
2022/06/15 05:36:22;;;;;;;5.72;2.03;;;;;21.20;101793.00;;;;5043189;28;20666;-78
2022/06/15 05:38:50;;;;;;;5.72;2.20;;;;;21.30;101796.00;;;;5042310;28;20699;-78
2022/06/15 05:41:17;;;;;;;3.67;1.70;;;;;21.30;101786.00;;;;5048764;28;20199;-78
2022/06/15 05:43:45;;;;;;;3.95;2.03;;;;;21.40;101791.00;;;;5049261;28;20243;-78
2022/06/15 05:46:24;;;;;;;2.25;1.83;;;;;21.40;101788.00;;;;5050316;28;20227;-79
2022/06/15 05:48:54;;;;;;;5.95;2.00;;;;;21.60;101792.00;;;;5049571;28;20207;-79
2022/06/15 05:51:21;;;;;;;3.33;2.38;;;;;21.60;101793.00;;;;5046219;28;20196;-77
2022/06/15 05:53:49;;;;;;;3.42;1.80;;;;;21.70;101793.00;;;;5044131;28;20199;-77
2022/06/15 05:56:16;;;;;;;2.83;1.70;;;;;21.80;101799.00;;;;5047508;28;20203;-77
2022/06/15 05:58:44;;;;;;;4.55;1.70;;;;;21.80;101798.00;;;;5048441;28;20203;-83
2022/06/15 06:01:13;;;;;;;3.75;1.85;;;;;21.90;101789.00;;;;5046191;28;20204;-80
2022/06/15 06:03:40;;;;;;;2.00;1.60;;;;;22.00;101798.00;;;;5047162;28;20278;-79
2022/06/15 06:06:11;;;;;;;2.42;2.03;;;;;22.00;101795.00;;;;5048692;28;20230;-78
2022/06/15 06:08:38;;;;;;;3.90;2.10;;;;;22.10;101802.00;;;;5048635;28;20576;-79
2022/06/15 06:11:06;;;;;;;4.55;1.90;;;;;22.20;101801.00;;;;5040214;28;20204;-78
2022/06/15 06:13:33;;;;;;;5.35;1.90;;;;;22.30;101800.00;;;;5049234;28;20207;-78
2022/06/15 06:16:00;;;;;;;4.45;2.17;;;;;22.40;101796.00;;;;5048848;28;20210;-79
2022/06/15 06:18:27;;;;;;;2.60;1.90;;;;;22.50;101798.00;;;;5048799;28;20219;-79
2022/06/15 06:20:55;;;;;;;3.17;1.60;;;;;22.50;101809.00;;;;5048118;28;20212;-79
2022/06/15 06:23:24;;;;;;;3.45;2.10;;;;;22.60;101807.00;;;;5048640;28;20213;-79
2022/06/15 06:25:53;;;;;;;6.32;2.00;;;;;22.70;101812.00;;;;5047691;28;20214;-79
2022/06/15 06:28:28;;;;;;;2.78;1.83;;;;;22.80;101804.00;;;;5039706;28;20210;-79
2022/06/15 06:30:57;;;;;;;2.92;2.08;;;;;22.90;101799.00;;;;5048208;28;20199;-79
2022/06/15 06:33:25;;;;;;;2.92;1.70;;;;;23.00;101802.00;;;;5047741;28;20247;-79
2022/06/15 06:35:54;;;;;;;5.78;2.30;;;;;23.10;101799.00;;;;5047714;28;20199;-79
2022/06/15 06:38:24;;;;;;;2.35;1.92;;;;;23.10;101798.00;;;;5048023;28;20191;-79
2022/06/15 06:40:52;;;;;;;3.80;2.10;;;;;23.20;101804.00;;;;5047768;28;20207;-79
2022/06/15 06:43:20;;;;;;;3.65;2.17;;;;;23.30;101802.00;;;;5047922;28;20231;-79
2022/06/15 06:45:48;;;;;;;2.58;1.95;;;;;23.40;101806.00;;;;5032137;28;20200;-79
2022/06/15 06:48:15;;;;;;;2.78;1.60;;;;;23.50;101803.00;;;;5047618;28;20586;-79
2022/06/15 06:50:44;;;;;;;2.00;1.88;;;;;23.60;101806.00;;;;5048062;28;20214;-79
2022/06/15 06:53:13;;;;;;;3.75;2.05;;;;;23.70;101809.00;;;;5041921;28;20331;-79
2022/06/15 06:55:42;;;;;;;1.90;1.60;;;;;23.80;101818.00;;;;5034791;28;20241;-79
2022/06/15 06:58:09;;;;;;;2.05;1.70;;;;;23.90;101814.00;;;;5045615;28;20218;-79
2022/06/15 07:00:37;;;;;;;2.08;1.88;;;;;24.00;101820.00;;;;5048154;28;20196;-78
2022/06/15 07:03:06;;;;;;;5.03;1.90;;;;;24.10;101819.00;;;;5037951;28;20210;-76
2022/06/15 07:05:36;;;;;;;3.63;2.17;;;;;24.20;101820.00;;;;5048604;28;20246;-79
2022/06/15 07:08:04;;;;;;;2.33;1.50;;;;;24.30;101825.00;;;;5047750;28;20231;-79
2022/06/15 07:10:32;;;;;;;2.53;1.67;;;;;24.50;101830.00;;;;5048429;28;20207;-80
2022/06/15 07:13:01;;;;;;;3.75;2.15;;;;;24.60;101830.00;;;;5047871;28;20227;-79
2022/06/15 07:15:29;;;;;;;4.22;2.08;;;;;24.70;101829.00;;;;5048613;28;20862;-79
2022/06/15 07:17:59;;;;;;;3.38;2.17;;;;;24.70;101829.00;;;;5046369;28;20681;-78
2022/06/15 07:20:27;;;;;;;7.45;2.10;;;;;24.90;101833.00;;;;5045341;28;20669;-79
2022/06/15 07:22:54;;;;;;;3.78;1.98;;;;;25.00;101837.00;;;;5048364;28;20199;-79
2022/06/15 07:25:22;;;;;;;4.82;2.42;;;;;25.10;101838.00;;;;5048662;28;20214;-78
2022/06/15 07:27:50;;;;;;;2.40;1.52;;;;;25.20;101842.00;;;;5048850;28;20246;-79
2022/06/15 07:30:23;;;;;;;2.70;1.67;;;;;25.30;101845.00;;;;5048726;28;20207;-79
2022/06/15 07:32:50;;;;;;;3.60;2.00;;;;;25.40;101844.00;;;;5048692;28;20196;-79
2022/06/15 07:35:21;;;;;;;3.47;1.80;;;;;25.50;101844.00;;;;5043731;28;20208;-80
2022/06/15 07:37:49;;;;;;;4.65;1.88;;;;;25.60;101849.00;;;;5040319;28;20565;-80
2022/06/15 07:40:17;;;;;;;4.03;1.60;;;;;25.70;101847.00;;;;5049199;28;20752;-80
2022/06/15 07:42:45;;;;;;;4.78;1.95;;;;;25.80;101848.00;;;;5052222;28;20597;-79
2022/06/15 07:45:13;;;;;;;3.50;1.60;;;;;25.90;101841.00;;;;5052112;28;20203;-79
2022/06/15 07:50:23;;;;;;;3.60;1.85;;;;;26.20;101843.00;;;;5007753;28;20211;-79
2022/06/15 07:52:53;;;;;;;3.72;1.52;;;;;26.20;101835.00;;;;5045047;28;20204;-80
2022/06/15 07:55:26;;;;;;;5.72;1.63;;;;;26.30;101846.00;;;;5052385;28;20210;-80
2022/06/15 07:57:55;;;;;;;4.47;1.90;;;;;26.50;101843.00;;;;5052321;28;20208;-79
2022/06/15 08:00:23;;;;;;;5.60;1.83;;;;;26.60;101837.00;;;;5052159;28;20219;-79
2022/06/15 08:02:53;;;;;;;2.50;1.35;;;;;26.70;101842.00;;;;5051293;28;20211;-79
2022/06/15 08:05:21;;;;;;;6.13;2.10;;;;;26.80;101841.00;;;;5052734;28;20208;-80
2022/06/15 08:07:50;;;;;;;4.57;1.45;;;;;26.90;101843.00;;;;5052497;28;20235;-79
2022/06/15 08:10:26;;;;;;;2.42;1.60;;;;;27.10;101844.00;;;;5039080;28;20751;-80
2022/06/15 08:12:53;;;;;;;3.20;1.75;;;;;27.20;101842.00;;;;5051175;28;20657;-78
2022/06/15 08:15:21;;;;;;;2.28;1.55;;;;;27.30;101840.00;;;;5050526;28;20192;-80
2022/06/15 08:17:53;;;;;;;2.22;1.70;;;;;27.40;101839.00;;;;5050570;28;20591;-78
2022/06/15 08:20:26;;;;;;;2.15;1.70;;;;;27.40;101845.00;;;;5050975;28;20216;-78
2022/06/15 08:22:58;;;;;;;4.22;1.45;;;;;27.50;101840.00;;;;5050278;28;20196;-78
2022/06/15 08:25:27;;;;;;;1.40;1.02;;;;;27.60;101844.00;;;;5050131;28;20191;-78
2022/06/15 08:27:55;;;;;;;4.72;1.95;;;;;27.70;101854.00;;;;5049842;28;20230;-79
2022/06/15 08:30:23;;;;;;;1.92;1.50;;;;;27.80;101846.00;;;;5050244;28;20211;-78
2022/06/15 08:32:52;;;;;;;3.80;1.52;;;;;27.90;101848.00;;;;5050449;28;20207;-78
2022/06/15 08:35:20;;;;;;;4.40;1.33;;;;;27.90;101849.00;;;;5050790;28;20202;-78
2022/06/15 08:37:47;;;;;;;3.50;1.38;;;;;28.00;101849.00;;;;5050123;28;20683;-78
2022/06/15 08:40:15;;;;;;;1.35;1.08;;;;;28.00;101842.00;;;;5050469;28;20206;-78
2022/06/15 08:42:51;;;;;;;2.10;1.30;;;;;28.10;101843.00;;;;5049943;28;20227;-78
2022/06/15 08:45:26;;;;;;;4.07;1.80;;;;;28.20;101845.00;;;;5035766;28;20208;-78
2022/06/15 08:48:13;;;;;;;2.13;1.30;;;;;28.20;101843.00;;;;5049457;28;20226;-78
2022/06/15 08:50:48;;;;;;;1.90;1.00;;;;;28.30;101843.00;;;;5036062;28;20265;-79
2022/06/15 08:53:19;;;;;;;1.63;0.90;;;;;28.40;101840.00;;;;5050434;28;20199;-79
2022/06/15 08:56:00;;;;;;;3.25;1.35;;;;;28.50;101836.00;;;;5051010;28;20214;-78
2022/06/15 08:58:36;;;;;;;1.98;1.10;;;;;28.60;101832.00;;;;5051348;28;20604;-79
2022/06/15 09:01:09;;;;;;;3.67;1.20;;;;;28.60;101837.00;;;;5048164;28;20207;-79
2022/06/15 09:03:48;;;;;;;3.10;1.42;;;;;28.70;101843.00;;;;5051193;28;20199;-79
2022/06/15 09:06:31;;;;;;;0.80;0.80;;;;;28.70;101843.00;;;;5050441;28;20654;-79
2022/06/15 09:09:11;;;;;;;1.40;1.30;;;;;28.80;101839.00;;;;5050113;28;20700;-79
2022/06/15 09:11:52;;;;;;;4.28;1.38;;;;;28.90;101840.00;;;;5050782;28;20282;-79
2022/06/15 09:14:34;;;;;;;2.20;1.20;;;;;28.90;101857.00;;;;5049909;28;20199;-76
2022/06/15 09:17:09;;;;;;;1.38;1.20;;;;;29.00;101850.00;;;;5047941;28;20212;-80
2022/06/15 09:19:43;;;;;;;2.55;1.13;;;;;29.10;101850.00;;;;5050400;28;20203;-79
2022/06/15 09:22:16;;;;;;;5.40;1.40;;;;;29.30;101854.00;;;;5049823;28;20199;-80
2022/06/15 09:24:48;;;;;;;2.97;1.30;;;;;29.30;101849.00;;;;5049440;28;20298;-79
2022/06/15 09:27:24;;;;;;;3.03;1.10;;;;;29.40;101839.00;;;;5037244;28;20249;-79
2022/06/15 09:29:57;;;;;;;2.95;1.73;;;;;29.50;101836.00;;;;5049805;28;20202;-79
2022/06/15 09:32:27;;;;;;;3.60;1.20;;;;;29.60;101839.00;;;;5049796;28;20197;-80
2022/06/15 09:35:05;;;;;;;1.75;0.93;;;;;29.60;101839.00;;;;5043151;28;20208;-80
2022/06/15 09:37:35;;;;;;;2.90;1.27;;;;;29.70;101833.00;;;;5048286;28;20226;-79
2022/06/15 09:40:04;;;;;;;1.60;1.17;;;;;29.80;101824.00;;;;5046759;28;20195;-79
2022/06/15 09:42:43;;;;;;;2.15;1.05;;;;;29.90;101832.00;;;;5048763;28;20238;-77
2022/06/15 09:45:16;;;;;;;2.92;0.95;;;;;30.10;101833.00;;;;5041823;28;20206;-78
2022/06/15 09:47:54;;;;;;;0.95;0.70;;;;;30.10;101829.00;;;;5043166;28;20237;-78
2022/06/15 09:50:30;;;;;;;2.70;1.00;;;;;30.20;101831.00;;;;5045971;28;20681;-79
2022/06/15 09:53:17;;;;;;;2.53;1.10;;;;;30.20;101823.00;;;;5047949;28;20657;-77
2022/06/15 09:55:48;;;;;;;2.45;0.82;;;;;30.30;101829.00;;;;5049132;28;20227;-76
2022/06/15 09:58:18;;;;;;;3.75;1.17;;;;;30.40;101821.00;;;;5049909;28;20306;-77
2022/06/15 10:00:46;;;;;;;1.92;1.10;;;;;30.40;101820.00;;;;5048392;28;20184;-78
2022/06/15 10:03:22;;;;;;;3.00;1.30;;;;;30.30;101833.00;;;;5046614;28;21097;-78
2022/06/15 10:05:54;;;;;;;2.13;1.25;;;;;30.40;101824.00;;;;5047661;28;20198;-79
2022/06/15 10:08:21;;;;;;;2.13;0.82;;;;;30.40;101820.00;;;;5044260;28;20566;-77
2022/06/15 10:10:52;;;;;;;1.08;0.80;;;;;30.40;101819.00;;;;5048330;28;20195;-78
2022/06/15 10:13:30;;;;;;;2.15;1.10;;;;;30.40;101822.00;;;;5047756;28;20200;-80
2022/06/15 10:16:00;;;;;;;1.85;1.20;;;;;30.50;101819.00;;;;5046846;28;20206;-79
2022/06/15 10:18:38;;;;;;;2.50;1.20;;;;;30.50;101819.00;;;;5046103;28;20228;-78
2022/06/15 10:21:10;;;;;;;1.52;1.00;;;;;30.60;101810.00;;;;5047192;28;20196;-79
2022/06/15 10:24:00;;;;;;;1.30;0.77;;;;;30.60;101823.00;;;;5043642;28;20195;-79
2022/06/15 10:26:40;;;;;;;2.22;1.10;;;;;30.70;101828.00;;;;5046579;28;20202;-78
2022/06/15 10:29:24;;;;;;;3.85;1.13;;;;;30.70;101829.00;;;;5047762;28;20691;-78
2022/06/15 10:32:16;;;;;;;4.18;1.02;;;;;30.80;101813.00;;;;5047224;28;20200;-79
2022/06/15 10:34:55;;;;;;;2.22;1.00;;;;;30.90;101825.00;;;;5045058;28;20202;-78
2022/06/15 10:37:28;;;;;;;2.05;1.20;;;;;31.00;101821.00;;;;5047221;28;21044;-79
2022/06/15 10:39:59;;;;;;;2.55;1.33;;;;;31.00;101820.00;;;;5045774;28;20200;-80
2022/06/15 10:42:33;;;;;;;2.13;0.93;;;;;31.00;101827.00;;;;5041265;28;20237;-80
2022/06/15 10:45:02;;;;;;;3.90;1.30;;;;;31.10;101822.00;;;;5046957;28;20194;-81
2022/06/15 10:47:44;;;;;;;2.53;1.13;;;;;31.10;101823.00;;;;5044023;28;20200;-81
2022/06/15 10:50:23;;;;;;;2.53;0.90;;;;;31.10;101813.00;;;;5047200;28;20214;-81
2022/06/15 10:52:57;;;;;;;1.52;1.17;;;;;31.10;101816.00;;;;5047985;28;20602;-83
2022/06/15 11:04:07;;;;;;;3.03;0.90;;;;;31.10;101813.00;;;;5051615;28;20195;-80
2022/06/15 11:06:40;;;;;;;1.83;1.25;;;;;31.20;101811.00;;;;5046170;28;20824;-80
2022/06/15 11:09:19;;;;;;;3.05;1.30;;;;;31.10;101819.00;;;;5045554;28;20512;-79
2022/06/15 11:11:47;;;;;;;1.50;1.17;;;;;31.20;101813.00;;;;5049388;28;20734;-80
2022/06/15 11:14:20;;;;;;;1.60;0.95;;;;;31.20;101820.00;;;;5049532;28;20198;-79
2022/06/15 11:19:40;;;;;;;1.10;0.80;;;;;31.10;101809.00;;;;5047723;28;20234;-79
2022/06/15 11:22:13;;;;;;;2.53;1.30;;;;;31.10;101809.00;;;;5046292;28;20197;-81
2022/06/15 11:24:48;;;;;;;2.25;1.50;;;;;31.10;101802.00;;;;5047477;28;20199;-80
2022/06/15 11:27:21;;;;;;;3.17;1.08;;;;;31.10;101818.00;;;;5047059;28;20557;-82
2022/06/15 11:29:52;;;;;;;1.58;1.15;;;;;31.10;101800.00;;;;5039719;28;20654;-81
2022/06/15 11:32:40;;;;;;;5.07;1.05;;;;;31.00;101807.00;;;;5045975;28;20200;-80
2022/06/15 11:35:25;;;;;;;1.95;0.85;;;;;31.00;101803.00;;;;5047449;28;20763;-82
2022/06/15 11:37:58;;;;;;;1.92;0.80;;;;;31.10;101799.00;;;;5044913;28;20224;-81
2022/06/15 11:40:37;;;;;;;5.18;1.50;;;;;31.10;101800.00;;;;5044679;28;20237;-80
2022/06/15 11:43:14;;;;;;;1.98;0.90;;;;;31.10;101807.00;;;;5042754;28;20599;-80
2022/06/15 11:45:54;;;;;;;11.13;1.08;;;;;31.10;101820.00;;;;5044500;28;20202;-80
2022/06/15 11:48:29;;;;;;;1.73;1.02;;;;;31.10;101808.00;;;;5044245;28;20202;-82
2022/06/15 11:51:04;;;;;;;1.30;0.98;;;;;31.10;101808.00;;;;5046273;28;20199;-80
2022/06/15 11:53:48;;;;;;;1.83;0.80;;;;;31.00;101804.00;;;;5048279;28;20191;-80
2022/06/15 11:56:20;;;;;;;2.22;1.08;;;;;31.00;101802.00;;;;5047604;28;20200;-79
2022/06/15 11:58:56;;;;;;;1.02;0.93;;;;;31.00;101799.00;;;;5047148;28;20227;-78
2022/06/15 12:01:37;;;;;;;2.22;1.00;;;;;31.00;101796.00;;;;5044293;28;20206;-80
2022/06/15 12:04:56;;;;;;;0.60;0.60;;;;;30.80;101785.00;;;;5041843;28;20219;-80
2022/06/15 12:07:33;;;;;;;2.40;0.85;;;;;30.90;101784.00;;;;5000774;28;20204;-79
2022/06/15 12:10:09;;;;;;;1.85;1.00;;;;;30.90;101786.00;;;;5002396;28;20678;-81
2022/06/15 12:12:48;;;;;;;2.25;1.00;;;;;30.90;101782.00;;;;5034982;28;20199;-79
2022/06/15 12:15:27;;;;;;;2.05;0.95;;;;;30.80;101778.00;;;;5045038;28;20720;-78
2022/06/15 12:18:02;;;;;;;2.17;1.00;;;;;30.80;101768.00;;;;5043841;28;20231;-79
2022/06/15 12:20:42;;;;;;;2.47;1.13;;;;;30.80;101771.00;;;;5051203;28;20300;-78
2022/06/15 12:23:24;;;;;;;3.28;0.80;;;;;30.80;101769.00;;;;5051069;28;20686;-80
2022/06/15 12:26:00;;;;;;;1.42;1.08;;;;;30.80;101761.00;;;;5048555;28;20192;-80
2022/06/15 12:28:34;;;;;;;5.50;1.05;;;;;30.80;101766.00;;;;5053960;28;20245;-79
2022/06/15 12:31:11;;;;;;;1.77;1.00;;;;;30.80;101762.00;;;;5048077;28;20664;-80
2022/06/15 12:33:44;;;;;;;2.83;1.02;;;;;30.80;101769.00;;;;5057996;28;20210;-79
2022/06/15 12:36:17;;;;;;;2.55;0.98;;;;;30.80;101772.00;;;;5056651;28;20203;-79
2022/06/15 12:38:53;;;;;;;1.50;0.88;;;;;30.80;101776.00;;;;5052304;28;20223;-79
2022/06/15 12:44:18;;;;;;;0.80;0.77;;;;;30.70;101770.00;;;;5050124;28;20222;-80
2022/06/15 12:46:47;;;;;;;2.05;0.90;;;;;30.80;101770.00;;;;5053282;28;20585;-79
2022/06/15 12:49:27;;;;;;;1.35;0.98;;;;;30.70;101773.00;;;;5054557;28;20199;-79
2022/06/15 12:52:04;;;;;;;4.45;1.10;;;;;30.70;101774.00;;;;5050696;28;20203;-78